Ana Sayfa
METAR-TAF:

METAR-TAF

Havaalanları :

Hagerstown, Maryland, Amerika Birleşik Devletleri

Enlem: 39-42-21N, Boylam: 077-43-48W, yükseklik: 214 m

Güncel hava durumu gözlemi

Rapor saat 15:53 UTC de 20 dakika önce yapıldı.
Rüzgar batıdan 8 kt
Sıcaklık 32°C
Nem 71%
Basınç 1015 hPa
Görüş mesafesi: 16.1 km
3600 ft yükseklikte az bulutlu

METAR: KHGR 191553Z 27008KT 10SM FEW036 32/26 A2998 RMK AO2 SLP154 T03170256

Saat: 12:13 (16:13 UTC)


TAF: eksik

4.000'den fazla havaalanı için hava durumu gözlemleri ve tahminleri (METAR ve TAF raporları).

Kullanılabilir istasyonlar harita üzerinde sarı ve kırmızı noktalarla gösterilir.

İstasyonun adını görmek için fareyi noktanın üzerinde gezdirin.

Sonrasında hava gözlem ve tahminlerini görmek için tıklayın.

Haritayı değiştirmek için: yaklaştırmak için siyah artı işaretli yeşil düğmeye ve uzaklaştırmak için de eksi işaretli düğmeye hızla tıklayın; bitişik haritalar için yeşil okları kullanın.


METAR-TAF: